Time;durP1;ratioP1;P1;durP2;ratioP2;P2;SDS_P1;SDS_P2;PMS_P1;PMS_P2;Temp;Humidity;BMP_temperature;BMP_pressure;BME280_temperature;BME280_humidity;BME280_pressure;Samples;Min_cycle;Max_cycle;Signal;HPM_P1;HPM_P2
2023/01/03 00:00:47;;;;;;;;;31.75;29.25;;;;;-147.17;100.00;-15917.19;4993752;28;52093;-63
2023/01/03 00:03:15;;;;;;;;;29.00;26.75;;;;;-147.17;100.00;-15917.19;4993339;28;51187;-59
2023/01/03 00:05:42;;;;;;;;;26.50;26.25;;;;;-147.17;100.00;-15917.19;4971847;28;51184;-59
2023/01/03 00:08:08;;;;;;;;;35.00;31.00;;;;;-147.17;100.00;-15917.19;4987924;28;51222;-59
2023/01/03 00:10:33;;;;;;;;;29.00;28.25;;;;;-147.17;100.00;-15917.19;4991001;28;51158;-58
2023/01/03 00:12:59;;;;;;;;;31.00;28.50;;;;;-147.17;100.00;-15917.19;4987962;28;51027;-58
2023/01/03 00:15:25;;;;;;;;;28.50;28.25;;;;;-147.17;100.00;-15917.19;4992335;28;51000;-59
2023/01/03 00:17:52;;;;;;;;;33.00;31.75;;;;;-147.17;100.00;-15917.19;4985755;28;51315;-59
2023/01/03 00:20:17;;;;;;;;;29.25;27.25;;;;;-147.17;100.00;-15917.19;4991261;28;51878;-59
2023/01/03 00:22:43;;;;;;;;;31.50;28.50;;;;;-147.17;100.00;-15917.19;4966740;28;51503;-58
2023/01/03 00:25:08;;;;;;;;;32.50;30.25;;;;;-147.17;100.00;-15917.19;4973367;28;51066;-58
2023/01/03 00:27:34;;;;;;;;;28.25;27.50;;;;;-147.17;100.00;-15917.19;4984738;28;51424;-58
2023/01/03 00:29:59;;;;;;;;;27.75;26.25;;;;;-147.17;100.00;-15917.19;4977580;28;51173;-59
2023/01/03 00:32:25;;;;;;;;;22.25;20.75;;;;;-147.17;100.00;-15917.19;4976470;28;51147;-58
2023/01/03 00:34:50;;;;;;;;;28.50;25.75;;;;;-147.17;100.00;-15917.19;4986611;28;51051;-58
2023/01/03 00:37:16;;;;;;;;;24.25;22.75;;;;;-147.17;100.00;-15917.19;4994560;28;51325;-58
2023/01/03 00:39:42;;;;;;;;;29.00;26.00;;;;;-147.17;100.00;-15917.19;4981432;28;52290;-59
2023/01/03 00:42:08;;;;;;;;;26.50;24.75;;;;;-147.17;100.00;-15917.19;4973677;28;51195;-58
2023/01/03 00:44:33;;;;;;;;;29.00;26.50;;;;;-147.17;100.00;-15917.19;4981790;28;51128;-58
2023/01/03 00:46:59;;;;;;;;;28.00;27.75;;;;;-147.17;100.00;-15917.19;4993442;28;50976;-59
2023/01/03 00:49:24;;;;;;;;;26.00;25.75;;;;;-147.17;100.00;-15917.19;4990689;28;51731;-59
2023/01/03 00:51:52;;;;;;;;;22.25;21.25;;;;;-147.17;100.00;-15917.19;4986335;28;51178;-58
2023/01/03 00:54:18;;;;;;;;;20.25;19.50;;;;;-147.17;100.00;-15917.19;4976145;28;51201;-58
2023/01/03 00:56:45;;;;;;;;;26.25;25.50;;;;;-147.17;100.00;-15917.19;4989372;28;51131;-58
2023/01/03 00:59:12;;;;;;;;;24.25;21.75;;;;;-147.17;100.00;-15917.19;4993742;28;51725;-58
2023/01/03 01:01:43;;;;;;;;;25.00;22.25;;;;;-147.17;100.00;-15917.19;4987322;28;50968;-59
2023/01/03 01:04:13;;;;;;;;;26.75;24.75;;;;;-147.17;100.00;-15917.19;4969433;28;51434;-59
2023/01/03 01:06:41;;;;;;;;;23.50;22.00;;;;;-147.17;100.00;-15917.19;4989204;28;51394;-58
2023/01/03 01:09:11;;;;;;;;;20.00;19.25;;;;;-147.17;100.00;-15917.19;4989736;28;51959;-58
2023/01/03 01:11:37;;;;;;;;;21.00;19.50;;;;;-147.17;100.00;-15917.19;4980703;28;52335;-58
2023/01/03 01:14:18;;;;;;;;;23.50;22.00;;;;;-147.17;100.00;-15917.19;4977175;28;51023;-57
2023/01/03 01:16:44;;;;;;;;;23.75;22.50;;;;;-147.17;100.00;-15917.19;4988203;28;50956;-59
2023/01/03 01:19:09;;;;;;;;;16.75;16.25;;;;;-147.17;100.00;-15917.19;4992248;28;52052;-58
2023/01/03 01:21:35;;;;;;;;;22.50;22.00;;;;;-147.17;100.00;-15917.19;4975685;28;51141;-59
2023/01/03 01:24:00;;;;;;;;;19.75;18.50;;;;;-147.17;100.00;-15917.19;4982003;28;51389;-59
2023/01/03 01:26:26;;;;;;;;;20.75;18.75;;;;;-147.17;100.00;-15917.19;4992714;28;51511;-58
2023/01/03 01:28:53;;;;;;;;;26.50;24.00;;;;;-147.17;100.00;-15917.19;4993598;28;51896;-58
2023/01/03 01:31:22;;;;;;;;;16.75;15.00;;;;;-147.17;100.00;-15917.19;4983875;28;51197;-58
2023/01/03 01:33:48;;;;;;;;;18.75;17.75;;;;;-147.17;100.00;-15917.19;4986261;28;51193;-57
2023/01/03 01:36:23;;;;;;;;;18.00;17.25;;;;;-147.17;100.00;-15917.19;4979915;28;51250;-57
2023/01/03 01:38:54;;;;;;;;;18.25;18.25;;;;;-147.17;100.00;-15917.19;4981827;28;51078;-59
2023/01/03 01:44:36;;;;;;;;;22.25;21.00;;;;;-147.17;100.00;-15917.19;4984222;28;51120;-58
2023/01/03 01:46:51;;;;;;;;;18.75;17.25;;;;;-147.17;100.00;-15917.19;4982890;28;51072;-59
2023/01/03 01:49:24;;;;;;;;;19.50;19.25;;;;;-147.17;100.00;-15917.19;4991883;28;51813;-59
2023/01/03 01:51:50;;;;;;;;;18.50;18.50;;;;;-147.17;100.00;-15917.19;4967088;28;50880;-57
2023/01/03 01:54:16;;;;;;;;;16.50;15.00;;;;;-147.17;100.00;-15917.19;4989513;28;51241;-58
2023/01/03 01:56:46;;;;;;;;;20.50;19.50;;;;;-147.17;100.00;-15917.19;5000274;28;51117;-59
2023/01/03 01:59:13;;;;;;;;;20.00;17.75;;;;;-147.17;100.00;-15917.19;4989453;28;52891;-59
2023/01/03 02:01:41;;;;;;;;;21.75;21.00;;;;;-147.17;100.00;-15917.19;4988064;28;51215;-58
2023/01/03 02:04:14;;;;;;;;;20.50;19.75;;;;;-147.17;100.00;-15917.19;4986827;28;51288;-58
2023/01/03 02:06:40;;;;;;;;;19.75;18.50;;;;;-147.17;100.00;-15917.19;4989319;28;51197;-58
2023/01/03 02:09:06;;;;;;;;;18.75;18.75;;;;;-147.17;100.00;-15917.19;4970300;28;51856;-58
2023/01/03 02:15:08;;;;;;;;;16.75;14.00;;;;;-147.17;100.00;-15917.19;4991765;28;51078;-58
2023/01/03 02:17:50;;;;;;;;;22.75;18.00;;;;;-147.17;100.00;-15917.19;4943784;28;51330;-58
2023/01/03 02:20:37;;;;;;;;;14.00;13.75;;;;;-147.17;100.00;-15917.19;4990833;28;52181;-59
2023/01/03 02:23:21;;;;;;;;;17.75;17.00;;;;;-147.17;100.00;-15917.19;4986317;28;51442;-57
2023/01/03 02:25:58;;;;;;;;;16.50;14.50;;;;;-147.17;100.00;-15917.19;4990957;28;51141;-57
2023/01/03 02:29:17;;;;;;;;;20.25;18.00;;;;;-147.17;100.00;-15917.19;4992185;28;51177;-58
2023/01/03 02:31:56;;;;;;;;;17.00;16.25;;;;;-147.17;100.00;-15917.19;4949808;28;51774;-59
2023/01/03 02:34:43;;;;;;;;;15.50;15.00;;;;;-147.17;100.00;-15917.19;4986651;28;51139;-59
2023/01/03 02:37:36;;;;;;;;;15.00;13.50;;;;;-147.17;100.00;-15917.19;4991235;28;51236;-59
2023/01/03 02:40:57;;;;;;;;;16.00;13.25;;;;;-147.17;100.00;-15917.19;4991025;28;51099;-59
2023/01/03 02:43:34;;;;;;;;;16.75;15.75;;;;;-147.17;100.00;-15917.19;4945928;28;52150;-59
2023/01/03 02:46:14;;;;;;;;;18.00;17.50;;;;;-147.17;100.00;-15917.19;4971507;28;51098;-59
2023/01/03 02:48:49;;;;;;;;;16.00;14.25;;;;;-147.17;100.00;-15917.19;4975185;28;51213;-59
2023/01/03 02:51:38;;;;;;;;;19.00;17.00;;;;;-147.17;100.00;-15917.19;4988541;28;51161;-59
2023/01/03 02:54:09;;;;;;;;;17.00;13.75;;;;;-147.17;100.00;-15917.19;4980453;28;52992;-58
2023/01/03 02:56:39;;;;;;;;;14.50;12.50;;;;;-147.17;100.00;-15917.19;4991135;28;50979;-59
2023/01/03 02:59:11;;;;;;;;;12.25;11.75;;;;;-147.17;100.00;-15917.19;4991298;28;51219;-59
2023/01/03 03:01:43;;;;;;;;;17.00;16.50;;;;;-147.17;100.00;-15917.19;4992086;28;51058;-59
2023/01/03 03:04:09;;;;;;;;;9.25;9.25;;;;;-147.17;100.00;-15917.19;4990829;28;52036;-59
2023/01/03 03:06:51;;;;;;;;;14.25;13.00;;;;;-147.17;100.00;-15917.19;4995272;28;51126;-58
2023/01/03 03:09:17;;;;;;;;;14.75;13.25;;;;;-147.17;100.00;-15917.19;4992604;28;51128;-58
2023/01/03 03:14:35;;;;;;;;;11.25;11.25;;;;;-147.17;100.00;-15917.19;4978756;28;51121;-59
2023/01/03 03:17:11;;;;;;;;;13.75;13.00;;;;;-147.17;100.00;-15917.19;4976085;28;51252;-57
2023/01/03 03:25:27;;;;;;;;;14.25;12.50;;;;;-147.17;100.00;-15917.19;4992898;28;51203;-57
2023/01/03 03:30:49;;;;;;;;;15.00;14.25;;;;;-147.17;100.00;-15917.19;4988037;28;51146;-57
2023/01/03 03:33:34;;;;;;;;;13.25;12.50;;;;;-147.17;100.00;-15917.19;4976121;28;51548;-59
2023/01/03 03:36:14;;;;;;;;;11.25;9.50;;;;;-147.17;100.00;-15917.19;4991578;28;51102;-57
2023/01/03 03:38:43;;;;;;;;;15.25;13.25;;;;;-147.17;100.00;-15917.19;4989513;28;51017;-59
2023/01/03 03:47:17;;;;;;;;;11.25;8.50;;;;;-147.17;100.00;-15917.19;4991440;28;51164;-58
2023/01/03 03:49:47;;;;;;;;;14.25;12.00;;;;;-147.17;100.00;-15917.19;4974689;28;51114;-58
2023/01/03 03:52:19;;;;;;;;;11.50;11.50;;;;;-147.17;100.00;-15917.19;4975858;28;51329;-58
2023/01/03 03:55:00;;;;;;;;;13.00;11.75;;;;;-147.17;100.00;-15917.19;4959794;28;51155;-57
2023/01/03 03:57:32;;;;;;;;;14.00;12.25;;;;;-147.17;100.00;-15917.19;4993083;28;52247;-58
2023/01/03 04:00:04;;;;;;;;;11.75;11.25;;;;;-147.17;100.00;-15917.19;4987921;28;51144;-59
2023/01/03 04:02:31;;;;;;;;;11.50;11.50;;;;;-147.17;100.00;-15917.19;4985622;28;51150;-58
2023/01/03 04:05:02;;;;;;;;;11.00;10.00;;;;;-147.17;100.00;-15917.19;4993772;28;51189;-58
2023/01/03 04:07:28;;;;;;;;;13.50;12.25;;;;;-147.17;100.00;-15917.19;4970963;28;51374;-58
2023/01/03 04:09:53;;;;;;;;;14.00;13.00;;;;;-147.17;100.00;-15917.19;4989901;28;51132;-57
2023/01/03 04:12:19;;;;;;;;;13.00;11.75;;;;;-147.17;100.00;-15917.19;4991011;28;50943;-58
2023/01/03 04:14:44;;;;;;;;;11.75;11.00;;;;;-147.17;100.00;-15917.19;4994318;28;51148;-58
2023/01/03 04:17:10;;;;;;;;;11.75;10.00;;;;;-147.17;100.00;-15917.19;4993749;28;52276;-58
2023/01/03 04:19:35;;;;;;;;;12.00;12.00;;;;;-147.17;100.00;-15917.19;4966502;28;51182;-59
2023/01/03 04:22:01;;;;;;;;;11.00;10.00;;;;;-147.17;100.00;-15917.19;4972992;28;51378;-59
2023/01/03 04:24:26;;;;;;;;;13.25;9.75;;;;;-147.17;100.00;-15917.19;4989747;28;51100;-57
2023/01/03 04:26:51;;;;;;;;;12.00;12.00;;;;;-147.17;100.00;-15917.19;4955368;28;51698;-60
2023/01/03 04:29:17;;;;;;;;;8.75;8.75;;;;;-147.17;100.00;-15917.19;4986776;28;51073;-59
2023/01/03 04:31:42;;;;;;;;;7.00;6.25;;;;;-147.17;100.00;-15917.19;4974510;28;51196;-59
2023/01/03 04:34:08;;;;;;;;;7.25;6.50;;;;;-147.17;100.00;-15917.19;4991090;28;51351;-59
2023/01/03 04:36:33;;;;;;;;;6.50;6.00;;;;;-147.17;100.00;-15917.19;4990351;28;51193;-58
2023/01/03 04:38:59;;;;;;;;;7.00;7.00;;;;;-147.17;100.00;-15917.19;4992288;28;51018;-59
2023/01/03 04:41:24;;;;;;;;;7.75;7.00;;;;;-147.17;100.00;-15917.19;5004933;28;51574;-59
2023/01/03 04:44:02;;;;;;;;;3.50;3.50;;;;;-147.17;100.00;-15917.19;4992618;28;51163;-58
2023/01/03 04:46:38;;;;;;;;;7.00;6.00;;;;;-147.17;100.00;-15917.19;4993213;28;52231;-59
2023/01/03 04:49:06;;;;;;;;;8.00;6.50;;;;;-147.17;100.00;-15917.19;4989077;28;51239;-60
2023/01/03 04:51:32;;;;;;;;;6.50;5.00;;;;;-147.17;100.00;-15917.19;4991887;28;51110;-58
2023/01/03 04:53:58;;;;;;;;;6.50;6.50;;;;;-147.17;100.00;-15917.19;4989828;28;51160;-57
2023/01/03 04:56:29;;;;;;;;;11.75;9.75;;;;;-147.17;100.00;-15917.19;4993182;28;51794;-58
2023/01/03 04:58:55;;;;;;;;;8.00;7.00;;;;;-147.17;100.00;-15917.19;4986508;28;51224;-58
2023/01/03 05:01:20;;;;;;;;;2.00;2.00;;;;;-147.17;100.00;-15917.19;4986191;28;51094;-58
2023/01/03 05:03:46;;;;;;;;;13.25;12.00;;;;;-147.17;100.00;-15917.19;4969563;28;51356;-58
2023/01/03 05:06:11;;;;;;;;;7.75;7.25;;;;;-147.17;100.00;-15917.19;4993698;28;50963;-58
2023/01/03 05:08:37;;;;;;;;;7.50;7.00;;;;;-147.17;100.00;-15917.19;4979283;28;52043;-58
2023/01/03 05:11:03;;;;;;;;;7.25;7.25;;;;;-147.17;100.00;-15917.19;4985902;28;51305;-58
2023/01/03 05:13:29;;;;;;;;;8.75;8.00;;;;;-147.17;100.00;-15917.19;4965083;28;51243;-58
2023/01/03 05:15:54;;;;;;;;;7.75;7.75;;;;;-147.17;100.00;-15917.19;4990449;28;52057;-58
2023/01/03 05:18:20;;;;;;;;;5.00;5.00;;;;;-147.17;100.00;-15917.19;4984019;28;51137;-58
2023/01/03 05:26:15;;;;;;;;;7.25;6.75;;;;;-147.17;100.00;-15917.19;4987355;28;50908;-57
2023/01/03 05:28:44;;;;;;;;;9.25;8.50;;;;;-147.17;100.00;-15917.19;4990930;28;51242;-59
2023/01/03 05:31:09;;;;;;;;;7.50;7.00;;;;;-147.17;100.00;-15917.19;4990858;28;51266;-57
2023/01/03 05:33:38;;;;;;;;;9.50;7.25;;;;;-147.17;100.00;-15917.19;4983695;28;51170;-58
2023/01/03 05:36:04;;;;;;;;;5.75;5.75;;;;;-147.17;100.00;-15917.19;4975344;28;51373;-58
2023/01/03 05:38:29;;;;;;;;;7.25;7.25;;;;;-147.17;100.00;-15917.19;4989428;28;52121;-58
2023/01/03 05:40:54;;;;;;;;;7.75;7.50;;;;;-147.17;100.00;-15917.19;4976406;28;51109;-58
2023/01/03 05:43:20;;;;;;;;;4.75;4.75;;;;;-147.17;100.00;-15917.19;4971310;28;51103;-58
2023/01/03 05:45:50;;;;;;;;;7.75;6.50;;;;;-147.17;100.00;-15917.19;4991806;28;51928;-58
2023/01/03 05:48:15;;;;;;;;;7.75;6.00;;;;;-147.17;100.00;-15917.19;4990948;28;50955;-58
2023/01/03 05:50:41;;;;;;;;;6.00;4.00;;;;;-147.17;100.00;-15917.19;4988973;28;50961;-58
2023/01/03 05:53:06;;;;;;;;;7.25;6.75;;;;;-147.17;100.00;-15917.19;4968370;28;50893;-58
2023/01/03 05:55:31;;;;;;;;;7.00;6.75;;;;;-147.17;100.00;-15917.19;4984564;28;51546;-58
2023/01/03 05:57:57;;;;;;;;;7.00;7.00;;;;;-147.17;100.00;-15917.19;4988224;28;50964;-58
2023/01/03 06:00:22;;;;;;;;;7.50;7.00;;;;;-147.17;100.00;-15917.19;4985836;28;50905;-58
2023/01/03 06:02:47;;;;;;;;;7.25;7.25;;;;;-147.17;100.00;-15917.19;4988774;28;51331;-58
2023/01/03 06:05:13;;;;;;;;;8.00;7.00;;;;;-147.17;100.00;-15917.19;4988433;28;51807;-58
2023/01/03 06:07:38;;;;;;;;;6.00;6.00;;;;;-147.17;100.00;-15917.19;4967805;28;51096;-59
2023/01/03 06:10:05;;;;;;;;;6.50;6.25;;;;;-147.17;100.00;-15917.19;4972932;28;51155;-57
2023/01/03 06:12:30;;;;;;;;;3.50;3.00;;;;;-147.17;100.00;-15917.19;4992291;28;51303;-58
2023/01/03 06:14:56;;;;;;;;;6.50;6.25;;;;;-147.17;100.00;-15917.19;4991873;28;51861;-58
2023/01/03 06:20:06;;;;;;;;;8.00;7.00;;;;;-147.17;100.00;-15917.19;4980898;28;51246;-58
2023/01/03 06:22:32;;;;;;;;;7.75;7.75;;;;;-147.17;100.00;-15917.19;4973133;28;51363;-58
2023/01/03 06:24:57;;;;;;;;;9.00;7.50;;;;;-147.17;100.00;-15917.19;4994454;28;51078;-58
2023/01/03 06:27:22;;;;;;;;;7.75;7.00;;;;;-147.17;100.00;-15917.19;4991912;28;50987;-61
2023/01/03 06:29:48;;;;;;;;;8.00;7.00;;;;;-147.17;100.00;-15917.19;4981816;28;53198;-59
2023/01/03 06:32:13;;;;;;;;;10.25;9.75;;;;;-147.17;100.00;-15917.19;4994281;28;51338;-59
2023/01/03 06:34:38;;;;;;;;;6.00;6.00;;;;;-147.17;100.00;-15917.19;4988275;28;51230;-57
2023/01/03 06:37:04;;;;;;;;;8.25;7.25;;;;;-147.17;100.00;-15917.19;4974905;28;51109;-59
2023/01/03 06:39:29;;;;;;;;;8.75;8.25;;;;;-147.17;100.00;-15917.19;4974828;28;51123;-59
2023/01/03 06:41:54;;;;;;;;;7.75;6.75;;;;;-147.17;100.00;-15917.19;4969030;28;51204;-58
2023/01/03 06:44:20;;;;;;;;;9.00;8.00;;;;;-147.17;100.00;-15917.19;4986332;28;52679;-58
2023/01/03 06:54:59;;;;;;;;;7.00;7.00;;;;;-147.17;100.00;-15917.19;4989258;28;51184;-58
2023/01/03 06:57:25;;;;;;;;;8.00;6.25;;;;;-147.17;100.00;-15917.19;4973545;28;51076;-58
2023/01/03 06:59:50;;;;;;;;;8.00;8.00;;;;;-147.17;100.00;-15917.19;4980138;28;51393;-58
2023/01/03 07:02:15;;;;;;;;;7.00;7.00;;;;;-147.17;100.00;-15917.19;4979600;28;51170;-61
2023/01/03 07:04:41;;;;;;;;;11.25;9.00;;;;;-147.17;100.00;-15917.19;4985352;28;51837;-58
2023/01/03 07:07:06;;;;;;;;;8.00;8.00;;;;;-147.17;100.00;-15917.19;4983222;28;51004;-58
2023/01/03 07:09:31;;;;;;;;;9.00;8.00;;;;;-147.17;100.00;-15917.19;5000323;28;50844;-58
2023/01/03 07:13:57;;;;;;;;;11.00;8.75;;;;;-147.17;100.00;-15917.19;4988558;28;51207;-58
2023/01/03 07:14:42;;;;;;;;;9.00;8.25;;;;;-147.17;100.00;-15917.19;4987271;28;50987;-58
2023/01/03 07:17:07;;;;;;;;;7.50;7.00;;;;;-147.17;100.00;-15917.19;4978532;28;51217;-58
2023/01/03 07:19:34;;;;;;;;;9.25;8.50;;;;;-147.17;100.00;-15917.19;4988251;28;51174;-58
2023/01/03 07:21:59;;;;;;;;;10.50;10.00;;;;;-147.17;100.00;-15917.19;4981257;28;51096;-58
2023/01/03 07:24:24;;;;;;;;;11.00;8.25;;;;;-147.17;100.00;-15917.19;4990983;28;51217;-58
2023/01/03 07:26:50;;;;;;;;;12.50;11.00;;;;;-147.17;100.00;-15917.19;4973932;28;51114;-58
2023/01/03 07:29:15;;;;;;;;;12.75;9.75;;;;;-147.17;100.00;-15917.19;4983075;28;52004;-58
2023/01/03 07:31:40;;;;;;;;;11.50;11.00;;;;;-147.17;100.00;-15917.19;4991722;28;51024;-58
2023/01/03 07:34:07;;;;;;;;;10.00;9.00;;;;;-147.17;100.00;-15917.19;4991572;28;51703;-58
2023/01/03 07:36:33;;;;;;;;;11.25;10.50;;;;;-147.17;100.00;-15917.19;4984134;28;51051;-58
2023/01/03 07:38:58;;;;;;;;;9.00;8.75;;;;;-147.17;100.00;-15917.19;5004101;28;51323;-58
2023/01/03 07:43:35;;;;;;;;;11.00;9.75;;;;;-147.17;100.00;-15917.19;4988608;28;51458;-57
2023/01/03 07:44:09;;;;;;;;;11.00;11.00;;;;;-147.17;100.00;-15917.19;4990367;28;51286;-58
2023/01/03 07:46:34;;;;;;;;;11.75;11.00;;;;;-147.17;100.00;-15917.19;4974796;28;51198;-59
2023/01/03 07:49:01;;;;;;;;;13.25;11.25;;;;;-147.17;100.00;-15917.19;4973796;28;51292;-58
2023/01/03 07:51:27;;;;;;;;;11.75;11.50;;;;;-147.17;100.00;-15917.19;4993736;28;50912;-58
2023/01/03 07:53:52;;;;;;;;;14.75;13.00;;;;;-147.17;100.00;-15917.19;4986191;28;52065;-57
2023/01/03 07:56:21;;;;;;;;;10.75;9.00;;;;;-147.17;100.00;-15917.19;4982344;28;51126;-60
2023/01/03 07:58:48;;;;;;;;;9.50;9.50;;;;;-147.17;100.00;-15917.19;4990921;28;51189;-59
2023/01/03 08:01:15;;;;;;;;;13.50;13.25;;;;;-147.17;100.00;-15917.19;4990617;28;51044;-58
2023/01/03 08:03:42;;;;;;;;;9.00;9.00;;;;;-147.17;100.00;-15917.19;4972101;28;54109;-58
2023/01/03 08:06:10;;;;;;;;;8.75;8.75;;;;;-147.17;100.00;-15917.19;4990078;28;51090;-59
2023/01/03 08:08:36;;;;;;;;;11.00;9.75;;;;;-147.17;100.00;-15917.19;4993185;28;51303;-59
2023/01/03 08:13:46;;;;;;;;;7.50;7.50;;;;;-147.17;100.00;-15917.19;4992945;28;51168;-59
2023/01/03 08:16:15;;;;;;;;;14.00;12.00;;;;;-147.17;100.00;-15917.19;4995156;28;51071;-58
2023/01/03 08:18:41;;;;;;;;;12.00;10.00;;;;;-147.17;100.00;-15917.19;4990541;28;51156;-59
2023/01/03 08:21:09;;;;;;;;;11.00;8.00;;;;;-147.17;100.00;-15917.19;4974420;28;51143;-58
2023/01/03 08:23:35;;;;;;;;;9.75;9.00;;;;;-147.17;100.00;-15917.19;4987214;28;53010;-58
2023/01/03 08:26:07;;;;;;;;;7.25;7.25;;;;;-147.17;100.00;-15917.19;4989036;28;51361;-60
2023/01/03 08:28:33;;;;;;;;;9.75;7.75;;;;;-147.17;100.00;-15917.19;4981671;28;51138;-59
2023/01/03 08:31:07;;;;;;;;;11.00;8.50;;;;;-147.17;100.00;-15917.19;4981407;28;51194;-58
2023/01/03 08:33:40;;;;;;;;;14.50;11.75;;;;;-147.17;100.00;-15917.19;4976424;28;51334;-60
2023/01/03 08:36:07;;;;;;;;;14.25;14.00;;;;;-147.17;100.00;-15917.19;4980262;28;51161;-58
2023/01/03 08:38:39;;;;;;;;;15.00;13.50;;;;;-147.17;100.00;-15917.19;4957532;28;51416;-59
2023/01/03 08:41:07;;;;;;;;;15.00;13.00;;;;;-147.17;100.00;-15917.19;4959704;28;51244;-58
2023/01/03 08:43:35;;;;;;;;;11.50;10.25;;;;;-147.17;100.00;-15917.19;4969515;28;52331;-59
2023/01/03 08:46:05;;;;;;;;;13.00;12.00;;;;;-147.17;100.00;-15917.19;4975861;28;51346;-58
2023/01/03 08:48:30;;;;;;;;;16.25;14.25;;;;;-147.17;100.00;-15917.19;4951469;28;52706;-59
2023/01/03 08:50:56;;;;;;;;;14.75;13.25;;;;;-147.17;100.00;-15917.19;4978481;28;51483;-58
2023/01/03 08:53:23;;;;;;;;;11.25;10.25;;;;;-147.17;100.00;-15917.19;4978081;28;51186;-58
2023/01/03 08:55:48;;;;;;;;;13.50;12.00;;;;;-147.17;100.00;-15917.19;4981482;28;51220;-59
2023/01/03 08:58:13;;;;;;;;;11.25;11.25;;;;;-147.17;100.00;-15917.19;4980216;28;51121;-59
2023/01/03 09:00:39;;;;;;;;;13.00;13.00;;;;;-147.17;100.00;-15917.19;4965614;28;51300;-59
2023/01/03 09:03:04;;;;;;;;;9.50;8.50;;;;;-147.17;100.00;-15917.19;4963664;28;52562;-58
2023/01/03 09:05:30;;;;;;;;;12.75;10.00;;;;;-147.17;100.00;-15917.19;4979013;28;51174;-58
2023/01/03 09:07:57;;;;;;;;;12.00;11.50;;;;;-147.17;100.00;-15917.19;4983039;28;51141;-58
2023/01/03 09:10:22;;;;;;;;;14.25;13.00;;;;;-147.17;100.00;-15917.19;4976823;28;51798;-60
2023/01/03 09:12:47;;;;;;;;;10.25;10.25;;;;;-147.17;100.00;-15917.19;4980148;28;51510;-58
2023/01/03 09:15:13;;;;;;;;;14.75;10.50;;;;;-147.17;100.00;-15917.19;4980805;28;51261;-58
2023/01/03 09:17:43;;;;;;;;;11.25;10.50;;;;;-147.17;100.00;-15917.19;4977526;28;51858;-58
2023/01/03 09:20:09;;;;;;;;;14.00;12.00;;;;;-147.17;100.00;-15917.19;4979691;28;51329;-58
2023/01/03 09:22:34;;;;;;;;;9.00;9.00;;;;;-147.17;100.00;-15917.19;4981800;28;51865;-58
2023/01/03 09:25:00;;;;;;;;;13.75;10.00;;;;;-147.17;100.00;-15917.19;4981205;28;51174;-61
2023/01/03 09:27:25;;;;;;;;;10.25;8.50;;;;;-147.17;100.00;-15917.19;4982429;28;53082;-59
2023/01/03 09:29:52;;;;;;;;;14.50;13.75;;;;;-147.17;100.00;-15917.19;4980571;28;52186;-58
2023/01/03 09:32:17;;;;;;;;;10.50;10.50;;;;;-147.17;100.00;-15917.19;4977172;28;52143;-58
2023/01/03 09:34:42;;;;;;;;;10.00;9.00;;;;;-147.17;100.00;-15917.19;4965278;28;51514;-59
2023/01/03 09:37:08;;;;;;;;;12.75;11.25;;;;;-147.17;100.00;-15917.19;4980719;28;51268;-59
2023/01/03 09:39:33;;;;;;;;;10.25;9.50;;;;;-147.17;100.00;-15917.19;4979941;28;51168;-58
2023/01/03 09:44:45;;;;;;;;;9.00;9.00;;;;;-147.17;100.00;-15917.19;4978388;28;51169;-59
2023/01/03 09:47:20;;;;;;;;;12.00;11.00;;;;;-147.17;100.00;-15917.19;4986125;28;51220;-58
2023/01/03 09:49:46;;;;;;;;;10.00;9.75;;;;;-147.17;100.00;-15917.19;4983758;28;51060;-59
2023/01/03 10:04:34;;;;;;;;;10.00;8.50;;;;;-147.17;100.00;-15917.19;4989829;28;51287;-59
2023/01/03 10:07:18;;;;;;;;;7.00;7.00;;;;;-147.17;100.00;-15917.19;4985514;28;51042;-59
2023/01/03 10:09:43;;;;;;;;;9.50;9.00;;;;;-147.17;100.00;-15917.19;4990690;28;50906;-59
2023/01/03 10:12:41;;;;;;;;;7.25;7.25;;;;;-147.17;100.00;-15917.19;4991147;28;51153;-58
2023/01/03 10:15:24;;;;;;;;;11.25;10.50;;;;;-147.17;100.00;-15917.19;4989060;28;51739;-59
2023/01/03 10:18:27;;;;;;;;;11.75;10.75;;;;;-147.17;100.00;-15917.19;4966526;28;51001;-59
2023/01/03 10:21:05;;;;;;;;;8.00;8.00;;;;;-147.17;100.00;-15917.19;4971048;28;51068;-58
2023/01/03 10:23:30;;;;;;;;;9.00;9.00;;;;;-147.17;100.00;-15917.19;4991960;28;50955;-58
2023/01/03 10:25:56;;;;;;;;;10.25;9.50;;;;;-147.17;100.00;-15917.19;4979393;28;51839;-58
2023/01/03 10:28:25;;;;;;;;;9.00;9.00;;;;;-147.17;100.00;-15917.19;4988701;28;51172;-58
2023/01/03 10:31:11;;;;;;;;;12.75;10.00;;;;;-147.17;100.00;-15917.19;4984672;28;51086;-58
2023/01/03 10:33:42;;;;;;;;;11.00;9.75;;;;;-147.17;100.00;-15917.19;4986946;28;51129;-60
2023/01/03 10:36:08;;;;;;;;;8.25;8.00;;;;;-147.17;100.00;-15917.19;4987035;28;53293;-58
2023/01/03 10:38:35;;;;;;;;;10.75;10.00;;;;;-147.17;100.00;-15917.19;4972661;28;51104;-59
2023/01/03 10:41:03;;;;;;;;;11.50;10.25;;;;;-147.17;100.00;-15917.19;4990873;28;51138;-59
2023/01/03 10:43:50;;;;;;;;;8.00;8.00;;;;;-147.17;100.00;-15917.19;4987254;28;51098;-59
2023/01/03 10:46:18;;;;;;;;;9.00;7.00;;;;;-147.17;100.00;-15917.19;4976816;28;52101;-60
2023/01/03 10:48:51;;;;;;;;;4.33;4.33;;;;;-147.17;100.00;-15917.19;4991492;28;51142;-59
2023/01/03 10:51:26;;;;;;;;;8.00;6.00;;;;;-147.17;100.00;-15917.19;4989896;28;51258;-60
2023/01/03 10:53:55;;;;;;;;;8.00;7.00;;;;;-147.17;100.00;-15917.19;4988940;28;51372;-59
2023/01/03 10:56:23;;;;;;;;;7.00;7.00;;;;;-147.17;100.00;-15917.19;4988562;28;51347;-59
2023/01/03 10:59:10;;;;;;;;;6.50;5.00;;;;;-147.17;100.00;-15917.19;4997575;28;51138;-58
2023/01/03 11:01:35;;;;;;;;;10.50;9.25;;;;;-147.17;100.00;-15917.19;4975677;28;51203;-59
2023/01/03 11:04:17;;;;;;;;;12.00;11.50;;;;;-147.17;100.00;-15917.19;4984329;28;51405;-59
2023/01/03 11:07:12;;;;;;;;;14.75;14.25;;;;;-147.17;100.00;-15917.19;4985822;28;52697;-59
2023/01/03 11:09:51;;;;;;;;;15.75;14.75;;;;;-147.17;100.00;-15917.19;4984447;28;51101;-59
2023/01/03 11:12:40;;;;;;;;;16.00;15.00;;;;;-147.17;100.00;-15917.19;4988031;28;51269;-59
2023/01/03 11:15:22;;;;;;;;;9.00;8.25;;;;;-147.17;100.00;-15917.19;4985212;28;51284;-61
2023/01/03 11:18:05;;;;;;;;;11.75;9.75;;;;;-147.17;100.00;-15917.19;4984173;28;51942;-58
2023/01/03 11:20:51;;;;;;;;;11.75;10.75;;;;;-147.17;100.00;-15917.19;4983714;28;51634;-59
2023/01/03 11:23:19;;;;;;;;;9.50;8.50;;;;;-147.17;100.00;-15917.19;4989748;28;51109;-59
2023/01/03 11:26:09;;;;;;;;;11.00;10.25;;;;;-147.17;100.00;-15917.19;4977068;28;51269;-59
2023/01/03 11:29:05;;;;;;;;;10.00;10.00;;;;;-147.17;100.00;-15917.19;4992749;28;51089;-59
2023/01/03 11:32:07;;;;;;;;;12.00;12.00;;;;;-147.17;100.00;-15917.19;4978533;28;51200;-60
2023/01/03 11:35:06;;;;;;;;;11.00;11.00;;;;;-147.17;100.00;-15917.19;4994960;28;51048;-60
2023/01/03 11:38:02;;;;;;;;;12.00;11.00;;;;;-147.17;100.00;-15917.19;4994793;28;51044;-60
2023/01/03 11:40:48;;;;;;;;;14.00;13.00;;;;;-147.17;100.00;-15917.19;4980896;28;54401;-59
2023/01/03 11:43:19;;;;;;;;;10.00;9.25;;;;;-147.17;100.00;-15917.19;4994758;28;51068;-59
2023/01/03 11:46:06;;;;;;;;;9.75;8.75;;;;;-147.17;100.00;-15917.19;4993916;28;51138;-60
2023/01/03 11:48:53;;;;;;;;;8.00;8.00;;;;;-147.17;100.00;-15917.19;4993400;28;51356;-60
2023/01/03 11:51:19;;;;;;;;;10.00;8.25;;;;;-147.17;100.00;-15917.19;4991898;28;51817;-58
2023/01/03 11:54:06;;;;;;;;;11.00;10.00;;;;;-147.17;100.00;-15917.19;4986302;28;51110;-59
2023/01/03 11:56:42;;;;;;;;;10.75;10.50;;;;;-147.17;100.00;-15917.19;4981881;28;51107;-59
2023/01/03 11:59:10;;;;;;;;;11.00;10.00;;;;;-147.17;100.00;-15917.19;4988385;28;51062;-60
2023/01/03 12:01:41;;;;;;;;;11.25;10.25;;;;;-147.17;100.00;-15917.19;4993246;28;51930;-59
2023/01/03 12:04:28;;;;;;;;;8.25;7.50;;;;;-147.17;100.00;-15917.19;4993927;28;51067;-60